Time;durP1;ratioP1;P1;durP2;ratioP2;P2;SDS_P1;SDS_P2;PMS_P1;PMS_P2;Temp;Humidity;BMP_temperature;BMP_pressure;BME280_temperature;BME280_humidity;BME280_pressure;Samples;Min_cycle;Max_cycle;Signal;HPM_P1;HPM_P2
2024/01/08 00:01:29;;;;;;;30.30;18.20;;;;;;;;;;714996;194;920526;-61
2024/01/08 00:03:54;;;;;;;31.45;19.62;;;;;;;;;;718585;195;814726;-68
2024/01/08 00:06:20;;;;;;;25.13;14.50;;;;;;;;;;710655;194;922280;-62
2024/01/08 00:08:46;;;;;;;43.28;27.40;;;;;;;;;;711488;194;918098;-68
2024/01/08 00:11:12;;;;;;;40.20;26.20;;;;;;;;;;719653;194;918975;-62
2024/01/08 00:13:38;;;;;;;40.97;27.53;;;;;;;;;;712527;194;918761;-69
2024/01/08 00:16:04;;;;;;;45.50;23.23;;;;;;;;;;710683;194;894584;-68
2024/01/08 00:18:30;;;;;;;34.60;17.40;;;;;;;;;;719326;194;936473;-61
2024/01/08 00:20:56;;;;;;;37.30;26.10;;;;;;;;;;713492;192;919834;-61
2024/01/08 00:23:21;;;;;;;34.97;19.40;;;;;;;;;;715437;194;879416;-69
2024/01/08 00:25:48;;;;;;;22.00;12.98;;;;;;;;;;717321;194;818418;-62
2024/01/08 00:28:14;;;;;;;34.00;22.60;;;;;;;;;;728990;190;907027;-69
2024/01/08 00:30:40;;;;;;;22.67;12.37;;;;;;;;;;712163;194;919114;-68
2024/01/08 00:33:05;;;;;;;26.10;14.20;;;;;;;;;;716167;194;917558;-62
2024/01/08 00:35:31;;;;;;;29.60;17.10;;;;;;;;;;721006;185;919056;-67
2024/01/08 00:37:57;;;;;;;28.13;14.40;;;;;;;;;;719304;185;917988;-61
2024/01/08 00:40:23;;;;;;;34.20;19.17;;;;;;;;;;709949;194;919337;-61
2024/01/08 00:42:49;;;;;;;25.70;12.63;;;;;;;;;;718977;194;919196;-62
2024/01/08 00:45:15;;;;;;;26.53;14.33;;;;;;;;;;709990;194;1016909;-68
2024/01/08 00:47:40;;;;;;;25.42;15.32;;;;;;;;;;713661;194;918542;-61
2024/01/08 00:50:09;;;;;;;40.00;23.63;;;;;;;;;;717862;194;921612;-61
2024/01/08 00:52:33;;;;;;;34.83;20.73;;;;;;;;;;714887;194;918991;-68
2024/01/08 00:55:04;;;;;;;21.43;16.33;;;;;;;;;;712902;194;920305;-61
2024/01/08 00:57:25;;;;;;;22.80;13.37;;;;;;;;;;715653;194;1023724;-68
2024/01/08 00:59:51;;;;;;;22.50;14.70;;;;;;;;;;717643;194;818150;-61
2024/01/08 01:02:17;;;;;;;32.87;20.57;;;;;;;;;;714032;194;918250;-61
2024/01/08 01:04:43;;;;;;;23.33;16.00;;;;;;;;;;719447;193;918724;-61
2024/01/08 01:07:08;;;;;;;36.50;16.98;;;;;;;;;;725717;194;815779;-69
2024/01/08 01:09:34;;;;;;;27.43;16.63;;;;;;;;;;720897;194;917337;-69
2024/01/08 01:12:01;;;;;;;35.77;23.13;;;;;;;;;;709493;194;939337;-68
2024/01/08 01:14:26;;;;;;;28.53;20.53;;;;;;;;;;719497;194;911309;-62
2024/01/08 01:16:52;;;;;;;20.07;13.13;;;;;;;;;;712436;194;918088;-62
2024/01/08 01:19:18;;;;;;;27.20;17.63;;;;;;;;;;713980;194;921467;-69
2024/01/08 01:21:44;;;;;;;26.13;12.80;;;;;;;;;;717829;194;902817;-69
2024/01/08 01:24:09;;;;;;;28.00;18.07;;;;;;;;;;730080;190;874634;-69
2024/01/08 01:26:35;;;;;;;37.77;21.13;;;;;;;;;;715000;194;915661;-68
2024/01/08 01:29:01;;;;;;;41.67;25.43;;;;;;;;;;711318;194;918732;-69
2024/01/08 01:31:27;;;;;;;38.97;22.40;;;;;;;;;;715116;194;918287;-62
2024/01/08 01:33:53;;;;;;;27.63;18.43;;;;;;;;;;713390;194;918619;-69
2024/01/08 01:36:19;;;;;;;38.60;20.33;;;;;;;;;;715262;194;915519;-69
2024/01/08 01:38:45;;;;;;;33.73;19.20;;;;;;;;;;716498;194;920141;-61
2024/01/08 01:41:11;;;;;;;33.53;17.75;;;;;;;;;;712711;194;918603;-61
2024/01/08 01:43:36;;;;;;;25.87;13.70;;;;;;;;;;713484;194;916767;-61
2024/01/08 01:46:04;;;;;;;40.60;22.60;;;;;;;;;;714258;195;918545;-68
2024/01/08 01:48:28;;;;;;;26.87;17.23;;;;;;;;;;704765;195;855431;-61
2024/01/08 01:50:54;;;;;;;58.37;29.07;;;;;;;;;;712687;194;918752;-70
2024/01/08 01:53:19;;;;;;;28.70;17.67;;;;;;;;;;705311;195;918043;-70
2024/01/08 01:55:45;;;;;;;41.23;19.67;;;;;;;;;;719804;194;918847;-62
2024/01/08 01:58:11;;;;;;;46.80;23.10;;;;;;;;;;710800;194;918338;-62
2024/01/08 02:00:37;;;;;;;37.03;24.10;;;;;;;;;;708248;194;909275;-67
2024/01/08 02:03:03;;;;;;;36.60;22.13;;;;;;;;;;721791;194;918627;-61
2024/01/08 02:05:29;;;;;;;39.73;24.70;;;;;;;;;;718336;194;919376;-70
2024/01/08 02:07:55;;;;;;;46.67;28.02;;;;;;;;;;709676;194;918558;-69
2024/01/08 02:10:21;;;;;;;46.17;27.43;;;;;;;;;;719724;194;908223;-70
2024/01/08 02:12:46;;;;;;;37.73;23.57;;;;;;;;;;713675;194;916506;-68
2024/01/08 02:15:12;;;;;;;42.93;26.83;;;;;;;;;;713121;194;913382;-62
2024/01/08 02:17:38;;;;;;;36.90;20.83;;;;;;;;;;722827;194;917880;-67
2024/01/08 02:20:05;;;;;;;53.57;27.73;;;;;;;;;;727508;190;919046;-62
2024/01/08 02:22:31;;;;;;;42.20;26.60;;;;;;;;;;716846;194;919425;-62
2024/01/08 02:24:56;;;;;;;26.87;15.32;;;;;;;;;;711663;194;920162;-61
2024/01/08 02:27:22;;;;;;;41.00;17.77;;;;;;;;;;719239;190;882323;-73
2024/01/08 02:29:48;;;;;;;43.78;23.35;;;;;;;;;;718796;185;918602;-62
2024/01/08 02:32:14;;;;;;;28.43;15.50;;;;;;;;;;713994;192;820523;-69
2024/01/08 02:34:40;;;;;;;44.03;28.23;;;;;;;;;;716988;194;816752;-60
2024/01/08 02:37:06;;;;;;;37.07;19.63;;;;;;;;;;711890;194;1029317;-62
2024/01/08 02:39:31;;;;;;;27.67;16.10;;;;;;;;;;718037;194;919262;-69
2024/01/08 02:41:57;;;;;;;39.33;19.33;;;;;;;;;;716294;194;893095;-69
2024/01/08 02:44:23;;;;;;;33.30;19.50;;;;;;;;;;711157;194;936463;-62
2024/01/08 02:46:49;;;;;;;30.53;18.07;;;;;;;;;;715326;194;921179;-70
2024/01/08 02:49:15;;;;;;;35.57;20.27;;;;;;;;;;716710;194;919573;-69
2024/01/08 02:51:41;;;;;;;36.73;18.00;;;;;;;;;;724339;191;916480;-62
2024/01/08 02:54:07;;;;;;;27.13;17.40;;;;;;;;;;712434;194;920798;-70
2024/01/08 02:56:32;;;;;;;28.67;15.60;;;;;;;;;;718851;194;929580;-69
2024/01/08 02:58:58;;;;;;;29.03;17.00;;;;;;;;;;720659;194;910192;-62
2024/01/08 03:01:24;;;;;;;27.70;18.60;;;;;;;;;;714897;194;915130;-69
2024/01/08 03:03:50;;;;;;;24.40;18.20;;;;;;;;;;714110;194;865940;-70
2024/01/08 03:06:16;;;;;;;30.23;21.00;;;;;;;;;;716865;194;918561;-63
2024/01/08 03:08:42;;;;;;;30.17;17.17;;;;;;;;;;715993;194;911308;-63
2024/01/08 03:11:07;;;;;;;39.93;22.47;;;;;;;;;;709940;195;910775;-70
2024/01/08 03:13:33;;;;;;;31.27;18.27;;;;;;;;;;713253;194;915852;-68
2024/01/08 03:15:59;;;;;;;51.07;28.90;;;;;;;;;;710637;195;919573;-68
2024/01/08 03:18:25;;;;;;;32.13;21.70;;;;;;;;;;713419;194;919248;-62
2024/01/08 03:20:51;;;;;;;33.83;19.43;;;;;;;;;;711268;194;1019951;-63
2024/01/08 03:23:17;;;;;;;47.10;22.17;;;;;;;;;;718725;194;1084461;-61
2024/01/08 03:25:42;;;;;;;30.60;14.63;;;;;;;;;;711551;192;1226239;-63
2024/01/08 03:28:08;;;;;;;35.67;21.55;;;;;;;;;;718443;194;818947;-62
2024/01/08 03:30:34;;;;;;;39.13;22.70;;;;;;;;;;721668;194;919228;-69
2024/01/08 03:33:00;;;;;;;33.35;18.85;;;;;;;;;;715609;194;1101162;-63
2024/01/08 03:35:26;;;;;;;32.83;19.90;;;;;;;;;;717588;194;915998;-62
2024/01/08 03:37:52;;;;;;;25.12;15.75;;;;;;;;;;717573;194;921356;-69
2024/01/08 03:40:18;;;;;;;39.17;19.60;;;;;;;;;;715231;194;915249;-69
2024/01/08 03:42:43;;;;;;;33.65;19.05;;;;;;;;;;707895;194;922455;-70
2024/01/08 03:45:09;;;;;;;29.33;17.43;;;;;;;;;;707694;196;1024014;-68
2024/01/08 03:47:35;;;;;;;34.70;21.33;;;;;;;;;;717371;195;918161;-68
2024/01/08 03:50:01;;;;;;;25.37;16.93;;;;;;;;;;714274;194;923679;-62
2024/01/08 03:52:27;;;;;;;37.47;22.43;;;;;;;;;;711625;194;918443;-62
2024/01/08 03:54:53;;;;;;;32.37;20.37;;;;;;;;;;720003;194;901694;-69
2024/01/08 03:57:18;;;;;;;32.67;19.93;;;;;;;;;;714555;194;918318;-69
2024/01/08 03:59:44;;;;;;;43.00;25.63;;;;;;;;;;712825;193;917615;-70
2024/01/08 04:02:12;;;;;;;36.93;21.30;;;;;;;;;;720143;194;891685;-63
2024/01/08 04:04:36;;;;;;;32.83;17.27;;;;;;;;;;713855;192;1018362;-62
2024/01/08 04:07:02;;;;;;;26.30;16.00;;;;;;;;;;718908;194;920087;-65
2024/01/08 04:09:28;;;;;;;27.80;17.73;;;;;;;;;;719458;193;910300;-70
2024/01/08 04:11:53;;;;;;;36.63;18.80;;;;;;;;;;713573;194;917919;-62
2024/01/08 04:14:19;;;;;;;21.00;14.70;;;;;;;;;;712861;194;918547;-69
2024/01/08 04:16:45;;;;;;;37.93;18.73;;;;;;;;;;713367;194;919342;-64
2024/01/08 04:19:11;;;;;;;24.87;14.07;;;;;;;;;;718238;194;816141;-67
2024/01/08 04:21:37;;;;;;;28.40;14.10;;;;;;;;;;713733;194;925804;-68
2024/01/08 04:24:03;;;;;;;30.77;17.02;;;;;;;;;;712498;194;917264;-64
2024/01/08 04:26:29;;;;;;;31.87;21.53;;;;;;;;;;717687;194;917389;-64
2024/01/08 04:28:54;;;;;;;38.67;17.43;;;;;;;;;;711155;194;920215;-64
2024/01/08 04:31:20;;;;;;;26.50;16.40;;;;;;;;;;717340;194;916312;-68
2024/01/08 04:33:46;;;;;;;30.90;14.60;;;;;;;;;;720809;194;918672;-69
2024/01/08 04:36:12;;;;;;;23.70;13.77;;;;;;;;;;716387;194;918840;-64
2024/01/08 04:38:38;;;;;;;33.57;18.47;;;;;;;;;;712081;194;918155;-68
2024/01/08 04:41:04;;;;;;;35.47;23.43;;;;;;;;;;716285;193;916144;-68
2024/01/08 04:43:29;;;;;;;26.40;14.83;;;;;;;;;;729925;190;817823;-68
2024/01/08 04:45:55;;;;;;;34.40;20.87;;;;;;;;;;712678;194;914117;-68
2024/01/08 04:48:21;;;;;;;36.27;21.00;;;;;;;;;;716738;194;915647;-68
2024/01/08 04:50:47;;;;;;;35.67;17.30;;;;;;;;;;716961;194;917541;-68
2024/01/08 04:53:13;;;;;;;30.77;17.60;;;;;;;;;;711313;194;919332;-64
2024/01/08 04:55:39;;;;;;;79.03;35.53;;;;;;;;;;716106;194;1020789;-64
2024/01/08 04:58:05;;;;;;;79.97;28.50;;;;;;;;;;718695;194;840230;-69
2024/01/08 05:00:31;;;;;;;116.03;54.37;;;;;;;;;;714234;194;816084;-68
2024/01/08 05:02:57;;;;;;;139.50;57.57;;;;;;;;;;719146;194;628485;-63
2024/01/08 05:05:23;;;;;;;184.67;71.87;;;;;;;;;;720273;194;810054;-64
2024/01/08 05:07:49;;;;;;;91.57;37.80;;;;;;;;;;717712;194;918689;-67
2024/01/08 05:10:14;;;;;;;57.27;29.60;;;;;;;;;;714595;194;918146;-68
2024/01/08 05:12:40;;;;;;;117.27;48.77;;;;;;;;;;716591;194;918598;-64
2024/01/08 05:15:06;;;;;;;109.10;45.00;;;;;;;;;;719983;194;632833;-64
2024/01/08 05:17:32;;;;;;;114.63;61.17;;;;;;;;;;719181;194;622024;-69
2024/01/08 05:19:58;;;;;;;67.87;35.30;;;;;;;;;;716730;194;628892;-64
2024/01/08 05:22:24;;;;;;;56.10;28.97;;;;;;;;;;723324;194;628212;-68
2024/01/08 05:24:50;;;;;;;47.43;24.87;;;;;;;;;;718801;194;638232;-64
2024/01/08 05:27:16;;;;;;;53.27;29.33;;;;;;;;;;718202;194;628828;-63
2024/01/08 05:29:41;;;;;;;34.13;21.57;;;;;;;;;;721115;194;634322;-64
2024/01/08 05:32:07;;;;;;;36.07;17.00;;;;;;;;;;716909;194;623301;-63
2024/01/08 05:34:33;;;;;;;41.20;24.13;;;;;;;;;;717200;194;910597;-68
2024/01/08 05:36:59;;;;;;;43.23;28.37;;;;;;;;;;710722;194;921427;-68
2024/01/08 05:39:25;;;;;;;40.97;27.87;;;;;;;;;;721629;195;811495;-68
2024/01/08 05:41:51;;;;;;;38.77;25.43;;;;;;;;;;712660;194;875940;-68
2024/01/08 05:44:17;;;;;;;26.80;18.57;;;;;;;;;;714388;194;918023;-68
2024/01/08 05:46:43;;;;;;;32.93;23.27;;;;;;;;;;716755;194;844972;-69
2024/01/08 05:49:08;;;;;;;38.73;20.57;;;;;;;;;;717619;193;631716;-64
2024/01/08 05:51:34;;;;;;;37.50;25.33;;;;;;;;;;720198;193;914415;-68
2024/01/08 05:54:00;;;;;;;39.57;24.00;;;;;;;;;;722351;194;619984;-64
2024/01/08 05:56:26;;;;;;;36.80;19.33;;;;;;;;;;718192;194;629079;-64
2024/01/08 05:58:52;;;;;;;39.43;23.10;;;;;;;;;;718822;194;616095;-64
2024/01/08 06:01:17;;;;;;;40.83;25.83;;;;;;;;;;723452;194;712921;-69
2024/01/08 06:03:44;;;;;;;35.63;16.93;;;;;;;;;;720801;194;888993;-64
2024/01/08 06:06:13;;;;;;;31.80;17.87;;;;;;;;;;718400;194;816882;-65
2024/01/08 06:08:40;;;;;;;28.52;17.52;;;;;;;;;;715871;194;918773;-68
2024/01/08 06:11:04;;;;;;;27.63;16.63;;;;;;;;;;719930;194;915803;-64
2024/01/08 06:13:30;;;;;;;32.10;15.37;;;;;;;;;;712687;194;862496;-64
2024/01/08 06:15:56;;;;;;;31.67;17.50;;;;;;;;;;710533;194;922362;-68
2024/01/08 06:18:22;;;;;;;38.43;19.23;;;;;;;;;;720736;194;905791;-68
2024/01/08 06:20:49;;;;;;;34.15;20.50;;;;;;;;;;713434;194;919568;-64
2024/01/08 06:23:14;;;;;;;35.10;20.27;;;;;;;;;;713719;194;920708;-69
2024/01/08 06:25:39;;;;;;;41.97;21.00;;;;;;;;;;721544;194;920183;-68
2024/01/08 06:28:05;;;;;;;36.97;16.93;;;;;;;;;;708780;194;1020330;-69
2024/01/08 06:30:31;;;;;;;43.13;19.87;;;;;;;;;;711666;194;916999;-68
2024/01/08 06:32:57;;;;;;;32.17;18.13;;;;;;;;;;712329;195;917783;-70
2024/01/08 06:35:23;;;;;;;31.37;19.27;;;;;;;;;;717881;194;863510;-64
2024/01/08 06:37:49;;;;;;;28.23;17.83;;;;;;;;;;712013;194;1022074;-68
2024/01/08 06:40:15;;;;;;;35.83;17.23;;;;;;;;;;710159;193;925037;-65
2024/01/08 06:42:40;;;;;;;36.10;20.97;;;;;;;;;;719476;194;913753;-64
2024/01/08 06:45:06;;;;;;;34.77;14.70;;;;;;;;;;714120;194;919563;-64
2024/01/08 06:47:32;;;;;;;25.17;16.30;;;;;;;;;;713968;194;816912;-64
2024/01/08 06:49:58;;;;;;;58.47;21.07;;;;;;;;;;718798;194;891802;-65
2024/01/08 06:52:24;;;;;;;42.83;19.80;;;;;;;;;;710619;194;917861;-64
2024/01/08 06:54:50;;;;;;;43.00;19.50;;;;;;;;;;711626;194;916311;-64
2024/01/08 06:57:16;;;;;;;38.28;19.20;;;;;;;;;;713588;194;918859;-65
2024/01/08 06:59:42;;;;;;;52.73;26.97;;;;;;;;;;722910;190;913084;-69
2024/01/08 07:02:07;;;;;;;45.80;21.63;;;;;;;;;;715671;192;916462;-65
2024/01/08 07:04:33;;;;;;;38.57;24.67;;;;;;;;;;717898;194;925125;-69
2024/01/08 07:06:59;;;;;;;40.10;20.42;;;;;;;;;;720843;194;916560;-68
2024/01/08 07:09:25;;;;;;;47.67;23.33;;;;;;;;;;712660;194;915531;-69
2024/01/08 07:11:51;;;;;;;48.85;17.20;;;;;;;;;;714273;194;1019241;-64
2024/01/08 07:14:17;;;;;;;31.13;15.33;;;;;;;;;;717116;194;815360;-68
2024/01/08 07:16:43;;;;;;;46.30;24.03;;;;;;;;;;711222;194;916641;-69
2024/01/08 07:19:08;;;;;;;36.17;20.87;;;;;;;;;;718447;194;914873;-68
2024/01/08 07:21:34;;;;;;;34.87;18.67;;;;;;;;;;718616;193;917147;-68
2024/01/08 07:24:00;;;;;;;32.53;20.07;;;;;;;;;;716715;194;920910;-65
2024/01/08 07:26:26;;;;;;;37.37;18.80;;;;;;;;;;716571;194;920265;-65
2024/01/08 07:28:52;;;;;;;43.83;21.43;;;;;;;;;;716577;194;919258;-65
2024/01/08 07:31:18;;;;;;;46.60;24.00;;;;;;;;;;718893;195;805882;-65
2024/01/08 07:33:43;;;;;;;38.40;24.13;;;;;;;;;;712437;194;918721;-69
2024/01/08 07:36:09;;;;;;;38.00;20.58;;;;;;;;;;714493;194;1018429;-65
2024/01/08 07:38:36;;;;;;;32.47;19.77;;;;;;;;;;718730;194;816689;-64
2024/01/08 07:41:01;;;;;;;42.97;21.83;;;;;;;;;;714379;194;917420;-64
2024/01/08 07:43:27;;;;;;;42.53;22.45;;;;;;;;;;717550;194;920781;-68
2024/01/08 07:45:53;;;;;;;34.80;22.33;;;;;;;;;;723108;195;918191;-69
2024/01/08 07:48:19;;;;;;;36.87;20.80;;;;;;;;;;718470;187;711252;-68
2024/01/08 07:50:46;;;;;;;55.13;29.07;;;;;;;;;;711362;187;918521;-64
2024/01/08 07:53:12;;;;;;;66.23;34.80;;;;;;;;;;712478;194;905238;-65
2024/01/08 07:55:37;;;;;;;87.60;45.10;;;;;;;;;;725548;191;917354;-69
2024/01/08 07:58:03;;;;;;;47.90;30.60;;;;;;;;;;715287;194;916431;-69
2024/01/08 08:00:29;;;;;;;53.10;30.88;;;;;;;;;;716938;194;918721;-64
2024/01/08 08:02:55;;;;;;;68.47;43.00;;;;;;;;;;716412;194;815991;-65
2024/01/08 08:05:21;;;;;;;33.10;19.03;;;;;;;;;;713100;194;919944;-69
2024/01/08 08:07:47;;;;;;;41.27;20.30;;;;;;;;;;711654;194;923933;-65
2024/01/08 08:10:13;;;;;;;49.00;24.00;;;;;;;;;;718839;194;882054;-65
2024/01/08 08:12:39;;;;;;;35.23;20.53;;;;;;;;;;713176;194;915186;-64
2024/01/08 08:15:05;;;;;;;41.73;21.70;;;;;;;;;;715803;194;927030;-65
2024/01/08 08:17:31;;;;;;;25.73;13.30;;;;;;;;;;722769;194;869886;-65
2024/01/08 08:19:57;;;;;;;37.17;23.90;;;;;;;;;;714253;194;921681;-69
2024/01/08 08:22:24;;;;;;;56.40;29.43;;;;;;;;;;712498;194;919367;-69
2024/01/08 08:24:51;;;;;;;44.25;28.67;;;;;;;;;;715456;194;851007;-69
2024/01/08 08:27:17;;;;;;;29.73;14.63;;;;;;;;;;717964;194;939463;-69
2024/01/08 08:29:42;;;;;;;48.50;19.60;;;;;;;;;;715155;192;917400;-65
2024/01/08 08:32:08;;;;;;;37.00;21.00;;;;;;;;;;713012;194;918691;-67
2024/01/08 08:34:34;;;;;;;38.57;24.73;;;;;;;;;;715973;194;915270;-65
2024/01/08 08:37:00;;;;;;;46.70;21.50;;;;;;;;;;713143;194;916250;-71
2024/01/08 08:39:26;;;;;;;45.10;25.50;;;;;;;;;;717418;194;913485;-69
2024/01/08 08:41:52;;;;;;;46.60;22.80;;;;;;;;;;719717;194;918065;-70
2024/01/08 08:44:18;;;;;;;33.47;18.00;;;;;;;;;;712762;194;918219;-65
2024/01/08 08:46:44;;;;;;;67.53;33.78;;;;;;;;;;714727;194;918702;-65
2024/01/08 08:49:10;;;;;;;25.70;16.13;;;;;;;;;;712841;194;893574;-66
2024/01/08 08:51:35;;;;;;;92.82;37.65;;;;;;;;;;720347;194;917679;-69
2024/01/08 08:54:03;;;;;;;61.00;33.53;;;;;;;;;;712221;194;918909;-65
2024/01/08 08:56:27;;;;;;;39.22;22.30;;;;;;;;;;714756;194;771563;-65
2024/01/08 08:58:53;;;;;;;56.77;30.00;;;;;;;;;;719431;194;903631;-67
2024/01/08 09:01:19;;;;;;;81.40;36.03;;;;;;;;;;713025;194;918118;-70
2024/01/08 09:03:44;;;;;;;45.43;25.20;;;;;;;;;;713935;194;953484;-65
2024/01/08 09:06:10;;;;;;;41.67;26.47;;;;;;;;;;716940;194;918478;-66
2024/01/08 09:08:36;;;;;;;29.43;16.73;;;;;;;;;;715007;194;829518;-68
2024/01/08 09:11:02;;;;;;;41.73;29.03;;;;;;;;;;712911;194;948486;-68
2024/01/08 09:13:28;;;;;;;39.67;20.40;;;;;;;;;;716755;194;919222;-68
2024/01/08 09:15:54;;;;;;;47.80;24.87;;;;;;;;;;719817;194;816909;-65
2024/01/08 09:18:21;;;;;;;32.63;21.10;;;;;;;;;;712891;194;817771;-68
2024/01/08 09:20:46;;;;;;;41.17;26.23;;;;;;;;;;714185;194;900703;-65
2024/01/08 09:23:12;;;;;;;36.60;20.67;;;;;;;;;;720652;194;923904;-69
2024/01/08 09:25:38;;;;;;;34.80;21.20;;;;;;;;;;718472;194;867422;-66
2024/01/08 09:28:04;;;;;;;57.90;28.03;;;;;;;;;;717817;194;897113;-69
2024/01/08 09:30:29;;;;;;;30.10;19.50;;;;;;;;;;718324;194;939017;-70
2024/01/08 09:32:55;;;;;;;40.10;23.67;;;;;;;;;;714264;194;924636;-69
2024/01/08 09:35:21;;;;;;;37.83;22.57;;;;;;;;;;715310;194;863093;-69
2024/01/08 09:37:47;;;;;;;47.37;24.13;;;;;;;;;;723597;194;919603;-70
2024/01/08 09:40:13;;;;;;;33.20;19.53;;;;;;;;;;713055;194;921617;-65
2024/01/08 09:42:39;;;;;;;34.80;18.60;;;;;;;;;;717048;192;916288;-63
2024/01/08 09:45:06;;;;;;;45.70;23.23;;;;;;;;;;714801;194;917168;-70
2024/01/08 09:47:31;;;;;;;41.97;25.73;;;;;;;;;;716072;194;1023314;-63
2024/01/08 09:49:57;;;;;;;47.37;26.83;;;;;;;;;;712571;194;922702;-70
2024/01/08 09:52:23;;;;;;;55.53;35.13;;;;;;;;;;718077;194;915289;-69
2024/01/08 09:54:49;;;;;;;44.17;24.40;;;;;;;;;;714121;194;919496;-63
2024/01/08 09:57:14;;;;;;;37.60;20.27;;;;;;;;;;714692;194;1021769;-70
2024/01/08 09:59:40;;;;;;;39.73;24.00;;;;;;;;;;714882;194;855990;-65
2024/01/08 10:02:06;;;;;;;34.43;20.10;;;;;;;;;;715955;194;916431;-68
2024/01/08 10:04:32;;;;;;;33.53;20.67;;;;;;;;;;710007;194;917367;-64
2024/01/08 10:07:03;;;;;;;27.20;14.77;;;;;;;;;;711770;194;919434;-64
2024/01/08 10:09:29;;;;;;;35.37;19.33;;;;;;;;;;716912;194;915585;-65
2024/01/08 10:11:55;;;;;;;41.17;22.63;;;;;;;;;;718490;194;811787;-70
2024/01/08 10:14:23;;;;;;;21.87;12.77;;;;;;;;;;712596;194;918160;-69
2024/01/08 10:16:46;;;;;;;96.18;42.58;;;;;;;;;;715128;194;1042545;-68
2024/01/08 10:19:15;;;;;;;65.03;25.17;;;;;;;;;;721048;194;721431;-69
2024/01/08 10:21:38;;;;;;;40.67;22.60;;;;;;;;;;717102;194;817817;-65
2024/01/08 10:24:08;;;;;;;33.80;21.33;;;;;;;;;;712225;194;917612;-64
2024/01/08 10:26:33;;;;;;;49.43;24.63;;;;;;;;;;713645;193;918709;-68
2024/01/08 10:28:59;;;;;;;45.07;28.00;;;;;;;;;;727786;190;932978;-63
2024/01/08 10:31:25;;;;;;;37.33;22.33;;;;;;;;;;716805;194;911542;-64
2024/01/08 10:33:51;;;;;;;31.97;19.70;;;;;;;;;;715896;194;921374;-70
2024/01/08 10:36:17;;;;;;;30.83;17.83;;;;;;;;;;722937;194;723975;-65
2024/01/08 10:38:43;;;;;;;36.53;19.67;;;;;;;;;;715688;194;907503;-65
2024/01/08 10:41:09;;;;;;;27.47;15.77;;;;;;;;;;717774;193;816871;-70
2024/01/08 10:43:34;;;;;;;41.13;23.57;;;;;;;;;;719223;194;919282;-70
2024/01/08 10:46:00;;;;;;;45.27;19.30;;;;;;;;;;717838;194;935558;-65
2024/01/08 10:48:28;;;;;;;51.23;29.77;;;;;;;;;;714800;194;918598;-64
2024/01/08 10:50:54;;;;;;;54.43;26.10;;;;;;;;;;714400;194;920295;-68
2024/01/08 10:53:20;;;;;;;54.27;31.03;;;;;;;;;;726923;190;819328;-64
2024/01/08 10:55:46;;;;;;;45.72;25.12;;;;;;;;;;714283;194;908456;-69
2024/01/08 10:58:12;;;;;;;37.37;20.83;;;;;;;;;;714411;194;919567;-68
2024/01/08 11:00:39;;;;;;;24.23;16.10;;;;;;;;;;716216;194;817864;-69
2024/01/08 11:03:04;;;;;;;37.40;18.47;;;;;;;;;;716092;194;917721;-68
2024/01/08 11:05:30;;;;;;;55.93;33.83;;;;;;;;;;712806;194;916127;-64
2024/01/08 11:07:55;;;;;;;36.40;17.83;;;;;;;;;;720468;194;819101;-63
2024/01/08 11:10:22;;;;;;;38.10;23.67;;;;;;;;;;717601;194;918393;-64
2024/01/08 11:12:53;;;;;;;39.97;25.05;;;;;;;;;;715805;194;911501;-64
2024/01/08 11:15:18;;;;;;;37.90;24.70;;;;;;;;;;713854;194;919176;-69
2024/01/08 11:17:50;;;;;;;44.50;28.33;;;;;;;;;;718026;194;915184;-70
2024/01/08 11:20:32;;;;;;;30.10;18.57;;;;;;;;;;714166;194;816263;-64
2024/01/08 11:22:58;;;;;;;51.15;26.45;;;;;;;;;;707410;194;919120;-64
2024/01/08 11:25:24;;;;;;;33.40;15.80;;;;;;;;;;717377;194;819619;-64
2024/01/08 11:27:49;;;;;;;41.13;26.40;;;;;;;;;;717047;194;919937;-68
2024/01/08 11:30:15;;;;;;;37.90;21.83;;;;;;;;;;712545;194;921889;-64
2024/01/08 11:32:47;;;;;;;26.73;17.40;;;;;;;;;;715611;194;919092;-70
2024/01/08 11:35:13;;;;;;;27.30;18.33;;;;;;;;;;714703;194;916579;-64
2024/01/08 11:37:42;;;;;;;25.50;15.07;;;;;;;;;;719340;194;1023119;-64
2024/01/08 11:40:16;;;;;;;46.10;27.80;;;;;;;;;;713028;194;943470;-64
2024/01/08 11:42:45;;;;;;;41.17;23.93;;;;;;;;;;712025;194;918390;-69
2024/01/08 11:45:11;;;;;;;37.13;21.97;;;;;;;;;;715930;194;871427;-65
2024/01/08 11:47:37;;;;;;;46.70;24.83;;;;;;;;;;719993;194;825673;-69
2024/01/08 11:50:04;;;;;;;54.43;30.40;;;;;;;;;;715723;194;721950;-64
2024/01/08 11:52:29;;;;;;;47.87;25.17;;;;;;;;;;715893;194;917003;-65
2024/01/08 11:54:55;;;;;;;33.10;19.87;;;;;;;;;;712942;194;919539;-68
2024/01/08 11:57:21;;;;;;;38.93;19.40;;;;;;;;;;718438;194;900094;-70
2024/01/08 11:59:46;;;;;;;61.20;26.15;;;;;;;;;;713205;194;922576;-70
2024/01/08 12:02:14;;;;;;;51.10;30.50;;;;;;;;;;713852;194;918395;-69
2024/01/08 12:04:41;;;;;;;36.77;21.73;;;;;;;;;;720979;194;915255;-69
2024/01/08 12:07:10;;;;;;;46.50;26.40;;;;;;;;;;714897;192;919153;-65
2024/01/08 12:09:35;;;;;;;33.67;17.60;;;;;;;;;;713208;194;917578;-65
2024/01/08 12:12:03;;;;;;;62.83;34.30;;;;;;;;;;716854;194;917216;-69
2024/01/08 12:14:29;;;;;;;49.43;31.47;;;;;;;;;;717146;194;918354;-69
2024/01/08 12:16:55;;;;;;;57.38;37.42;;;;;;;;;;714711;194;918993;-65
2024/01/08 12:19:21;;;;;;;58.33;30.67;;;;;;;;;;714325;194;917415;-69
2024/01/08 12:21:46;;;;;;;80.43;31.93;;;;;;;;;;718900;194;923529;-70
2024/01/08 12:24:12;;;;;;;72.33;44.50;;;;;;;;;;712899;194;918315;-69
2024/01/08 12:26:38;;;;;;;40.93;26.90;;;;;;;;;;716609;194;918760;-70
2024/01/08 12:29:04;;;;;;;47.20;32.83;;;;;;;;;;718013;194;896570;-64
2024/01/08 12:31:31;;;;;;;49.37;26.90;;;;;;;;;;710542;194;815777;-64
2024/01/08 12:33:57;;;;;;;48.57;30.50;;;;;;;;;;712769;192;919030;-64
2024/01/08 12:36:24;;;;;;;34.40;23.12;;;;;;;;;;717402;194;917876;-65
2024/01/08 12:38:50;;;;;;;35.30;23.20;;;;;;;;;;716505;193;850792;-65
2024/01/08 12:41:16;;;;;;;35.27;23.33;;;;;;;;;;710382;194;835532;-70
2024/01/08 12:43:42;;;;;;;56.70;27.07;;;;;;;;;;717068;194;918942;-65
2024/01/08 12:46:07;;;;;;;46.60;25.90;;;;;;;;;;719507;195;816543;-70
2024/01/08 12:48:33;;;;;;;37.35;20.85;;;;;;;;;;709942;195;1021622;-65
2024/01/08 12:50:59;;;;;;;35.57;22.00;;;;;;;;;;714829;195;917366;-64
2024/01/08 12:53:25;;;;;;;47.20;18.87;;;;;;;;;;711393;194;919805;-69
2024/01/08 12:55:51;;;;;;;32.57;19.20;;;;;;;;;;714424;193;821181;-68
2024/01/08 12:58:17;;;;;;;34.00;15.60;;;;;;;;;;718017;193;924203;-65
2024/01/08 13:00:45;;;;;;;45.33;25.67;;;;;;;;;;718651;194;881200;-70
2024/01/08 13:03:08;;;;;;;42.70;23.80;;;;;;;;;;718747;194;919386;-70
2024/01/08 13:05:34;;;;;;;44.33;21.08;;;;;;;;;;714614;194;918834;-70
2024/01/08 13:08:00;;;;;;;43.47;22.27;;;;;;;;;;716298;194;779776;-65
2024/01/08 13:10:26;;;;;;;48.08;28.27;;;;;;;;;;723874;194;901995;-70
2024/01/08 13:12:52;;;;;;;51.17;23.27;;;;;;;;;;716263;194;919704;-63
2024/01/08 13:15:18;;;;;;;46.07;31.73;;;;;;;;;;712640;194;916181;-69
2024/01/08 13:17:43;;;;;;;39.67;21.27;;;;;;;;;;717804;194;916957;-70
2024/01/08 13:20:10;;;;;;;32.33;16.60;;;;;;;;;;713711;192;918382;-69
2024/01/08 13:22:36;;;;;;;26.87;14.83;;;;;;;;;;714306;194;917922;-64
2024/01/08 13:25:02;;;;;;;46.73;29.67;;;;;;;;;;718616;194;918772;-69
2024/01/08 13:27:27;;;;;;;29.23;16.43;;;;;;;;;;713976;194;921659;-65
2024/01/08 13:29:53;;;;;;;53.77;34.10;;;;;;;;;;717653;194;918100;-69
2024/01/08 13:32:19;;;;;;;50.27;24.53;;;;;;;;;;713884;194;922814;-64
2024/01/08 13:34:47;;;;;;;50.07;23.97;;;;;;;;;;722435;195;811895;-70
2024/01/08 13:37:11;;;;;;;40.33;21.73;;;;;;;;;;715001;194;817771;-70
2024/01/08 13:39:39;;;;;;;41.90;27.00;;;;;;;;;;717393;194;913697;-70
2024/01/08 13:42:03;;;;;;;38.92;22.50;;;;;;;;;;720400;194;721735;-70
2024/01/08 13:44:29;;;;;;;37.73;21.33;;;;;;;;;;713166;194;917627;-69
2024/01/08 13:46:55;;;;;;;53.97;21.73;;;;;;;;;;719751;194;878241;-69
2024/01/08 13:49:21;;;;;;;44.03;25.90;;;;;;;;;;721350;194;916886;-63
2024/01/08 13:51:47;;;;;;;62.10;39.47;;;;;;;;;;711410;194;1007510;-65
2024/01/08 13:54:12;;;;;;;59.65;25.58;;;;;;;;;;715072;185;1022476;-68
2024/01/08 13:56:38;;;;;;;61.53;35.83;;;;;;;;;;721612;187;919268;-64